Time;durP1;ratioP1;P1;durP2;ratioP2;P2;SDS_P1;SDS_P2;PMS_P1;PMS_P2;Temp;Humidity;BMP_temperature;BMP_pressure;BME280_temperature;BME280_humidity;BME280_pressure;Samples;Min_cycle;Max_cycle;Signal;HPM_P1;HPM_P2
2024/04/05 00:00:39;;;;;;;5.95;1.80;;;;;;;18.75;50.68;100962.06;5003828;28;20044;-68
2024/04/05 00:03:05;;;;;;;6.60;1.85;;;;;;;18.75;50.41;100965.53;5001454;28;20046;-72
2024/04/05 00:05:30;;;;;;;7.63;2.20;;;;;;;18.70;50.43;100938.69;5003596;28;20034;-73
2024/04/05 00:07:55;;;;;;;7.20;2.10;;;;;;;18.62;50.54;100917.38;5002792;28;20534;-69
2024/04/05 00:10:21;;;;;;;6.97;2.17;;;;;;;18.57;50.76;100896.63;5003251;28;20034;-73
2024/04/05 00:12:47;;;;;;;7.05;1.80;;;;;;;18.61;50.43;100900.72;5003741;28;20459;-68
2024/04/05 00:15:12;;;;;;;6.97;1.80;;;;;;;18.72;50.56;100913.00;5003481;28;21016;-68
2024/04/05 00:17:37;;;;;;;7.03;2.03;;;;;;;18.61;50.56;100902.47;5004191;28;20030;-68
2024/04/05 00:20:03;;;;;;;6.25;1.80;;;;;;;18.73;50.46;100932.34;5003063;28;20061;-73
2024/04/05 00:22:28;;;;;;;7.25;2.15;;;;;;;18.68;50.52;100927.44;5003148;28;20483;-66
2024/04/05 00:24:57;;;;;;;6.07;1.60;;;;;;;18.57;50.42;100922.19;5002819;28;20044;-70
2024/04/05 00:27:22;;;;;;;6.00;1.73;;;;;;;18.68;50.53;100940.63;5003056;28;20073;-73
2024/04/05 00:29:48;;;;;;;5.45;1.60;;;;;;;18.60;50.61;100935.97;5002773;28;20403;-68
2024/04/05 00:32:13;;;;;;;6.80;2.17;;;;;;;18.58;50.63;100937.03;5003824;28;20132;-67
2024/04/05 00:34:38;;;;;;;6.05;1.83;;;;;;;18.63;50.59;100946.28;4986031;28;20414;-69
2024/04/05 00:37:03;;;;;;;5.93;1.85;;;;;;;18.61;50.57;100936.81;5001999;28;20134;-67
2024/04/05 00:39:29;;;;;;;6.45;1.83;;;;;;;18.63;50.33;100938.34;5002555;28;20468;-68
2024/04/05 00:41:54;;;;;;;5.25;1.52;;;;;;;18.64;50.22;100932.13;5002874;28;20034;-66
2024/04/05 00:44:19;;;;;;;3.95;1.50;;;;;;;18.56;50.43;100921.34;5002840;28;20120;-68
2024/04/05 00:46:45;;;;;;;6.60;1.70;;;;;;;18.50;50.67;100911.31;5003060;28;20046;-68
2024/04/05 00:49:10;;;;;;;7.03;2.10;;;;;;;18.65;50.61;100935.59;5002946;28;20068;-68
2024/04/05 00:51:37;;;;;;;8.10;1.85;;;;;;;18.64;50.80;100933.91;5002863;28;20045;-70
2024/04/05 00:54:04;;;;;;;5.68;1.70;;;;;;;18.61;50.57;100931.53;5002824;28;20045;-68
2024/04/05 00:56:31;;;;;;;7.07;1.95;;;;;;;18.63;50.51;100935.72;5003143;28;20058;-69
2024/04/05 00:58:57;;;;;;;7.18;1.85;;;;;;;18.46;50.48;100901.94;5002256;28;20073;-70
2024/04/05 01:01:23;;;;;;;6.32;1.80;;;;;;;18.53;50.85;100913.66;4993967;28;20506;-69
2024/04/05 01:03:48;;;;;;;5.00;1.60;;;;;;;18.60;50.60;100911.38;5002417;28;20079;-67
2024/04/05 01:06:13;;;;;;;5.20;1.80;;;;;;;18.46;50.78;100886.94;5002847;28;20038;-68
2024/04/05 01:08:39;;;;;;;5.60;2.10;;;;;;;18.36;50.76;100862.28;5002691;28;20045;-66
2024/04/05 01:11:04;;;;;;;6.53;1.77;;;;;;;18.53;50.82;100900.47;5002644;28;20124;-68
2024/04/05 01:13:30;;;;;;;7.07;1.75;;;;;;;18.45;50.84;100876.50;5002327;28;20045;-71
2024/04/05 01:15:55;;;;;;;5.97;1.60;;;;;;;18.50;50.68;100895.47;5002709;28;20192;-70
2024/04/05 01:18:20;;;;;;;6.47;2.03;;;;;;;18.56;50.91;100912.59;5002049;28;20024;-71
2024/04/05 01:20:50;;;;;;;8.15;1.83;;;;;;;18.59;50.66;100920.25;5002055;28;20051;-72
2024/04/05 01:23:16;;;;;;;8.73;2.35;;;;;;;18.56;50.63;100917.88;5002436;28;20480;-66
2024/04/05 01:25:42;;;;;;;5.70;1.70;;;;;;;18.45;50.57;100895.84;5001888;28;20034;-70
2024/04/05 01:28:12;;;;;;;6.60;1.83;;;;;;;18.47;50.80;100898.38;5002481;28;20079;-72
2024/04/05 01:30:37;;;;;;;5.70;1.75;;;;;;;18.42;50.70;100885.53;5002078;28;20116;-71
2024/04/05 01:33:03;;;;;;;5.50;1.80;;;;;;;18.55;50.61;100906.47;5001793;28;20032;-66
2024/04/05 01:35:29;;;;;;;7.10;1.88;;;;;;;18.45;50.70;100893.22;5002205;28;20147;-66
2024/04/05 01:37:56;;;;;;;5.32;1.42;;;;;;;18.58;50.47;100913.28;5001695;28;20131;-66
2024/04/05 01:40:22;;;;;;;7.40;1.75;;;;;;;18.43;50.55;100889.00;5002261;28;20037;-71
2024/04/05 01:42:47;;;;;;;5.30;1.63;;;;;;;18.52;50.51;100916.44;5002310;28;20042;-68
2024/04/05 01:45:13;;;;;;;7.03;2.00;;;;;;;18.51;50.83;100907.69;5002084;28;20030;-67
2024/04/05 01:47:38;;;;;;;6.28;1.95;;;;;;;18.42;50.45;100896.09;5001412;28;20080;-68
2024/04/05 01:50:04;;;;;;;6.07;2.08;;;;;;;18.50;50.67;100908.66;5001518;28;20494;-71
2024/04/05 01:52:30;;;;;;;8.18;2.25;;;;;;;18.51;50.70;100907.69;5002138;28;20037;-68
2024/04/05 01:54:56;;;;;;;7.82;2.10;;;;;;;18.55;50.55;100905.63;5001529;28;20045;-69
2024/04/05 01:57:22;;;;;;;5.38;1.60;;;;;;;18.48;50.70;100897.38;5001792;28;20042;-68
2024/04/05 01:59:48;;;;;;;6.30;1.73;;;;;;;18.53;51.01;100908.38;5002103;28;20032;-72
2024/04/05 02:02:14;;;;;;;7.13;1.73;;;;;;;18.48;50.76;100894.75;5000893;28;20033;-68
2024/04/05 02:04:39;;;;;;;5.43;1.63;;;;;;;18.29;50.32;100854.06;5001847;28;20048;-70
2024/04/05 02:07:04;;;;;;;6.25;1.60;;;;;;;18.46;50.45;100878.19;4989649;28;20041;-65
2024/04/05 02:09:30;;;;;;;7.45;2.00;;;;;;;18.35;50.34;100863.25;5000366;28;20120;-67
2024/04/05 02:11:55;;;;;;;7.20;2.00;;;;;;;18.49;50.74;100886.69;5001695;28;20076;-67
2024/04/05 02:14:20;;;;;;;5.93;1.60;;;;;;;17.98;50.11;100810.03;5001594;28;20121;-68
2024/04/05 02:16:45;;;;;;;6.63;1.80;;;;;;;18.45;50.42;100884.44;5001358;28;20471;-68
2024/04/05 02:19:11;;;;;;;8.38;1.90;;;;;;;18.49;50.50;100902.53;5001649;28;20037;-67
2024/04/05 02:21:36;;;;;;;6.13;1.60;;;;;;;18.48;50.52;100898.25;4987713;28;20101;-72
2024/04/05 02:24:01;;;;;;;5.55;1.45;;;;;;;18.48;50.39;100898.25;5002630;28;20069;-69
2024/04/05 02:26:27;;;;;;;6.95;1.88;;;;;;;18.42;50.74;100884.69;5002135;28;20034;-71
2024/04/05 02:28:52;;;;;;;5.43;1.90;;;;;;;18.45;50.49;100903.75;5001908;28;20030;-67
2024/04/05 02:31:17;;;;;;;6.30;1.70;;;;;;;18.36;50.24;100887.81;5002841;28;20058;-71
2024/04/05 02:33:43;;;;;;;7.38;1.45;;;;;;;18.31;50.51;100890.84;5002913;28;20038;-73
2024/04/05 02:36:08;;;;;;;6.60;1.80;;;;;;;18.43;50.37;100915.41;5002262;28;20025;-69
2024/04/05 02:38:33;;;;;;;5.22;1.60;;;;;;;18.44;50.42;100910.00;5001849;28;20030;-73
2024/04/05 02:40:58;;;;;;;5.82;1.83;;;;;;;18.31;50.52;100889.06;4991765;28;20041;-68
2024/04/05 02:43:24;;;;;;;5.10;1.70;;;;;;;18.38;50.31;100899.94;5002464;28;20029;-73
2024/04/05 02:45:49;;;;;;;5.55;1.70;;;;;;;18.30;50.43;100883.91;5003643;28;20040;-68
2024/04/05 02:48:15;;;;;;;7.20;1.92;;;;;;;18.42;50.74;100909.28;5003505;28;20061;-72
2024/04/05 02:50:40;;;;;;;6.45;2.10;;;;;;;18.41;50.52;100910.25;5002875;28;20428;-68
2024/04/05 02:53:06;;;;;;;7.60;2.17;;;;;;;18.31;50.10;100889.06;5001150;28;20116;-68
2024/04/05 02:55:31;;;;;;;6.88;2.17;;;;;;;18.44;50.46;100912.63;5003637;28;20052;-69
2024/04/05 02:57:57;;;;;;;5.93;1.70;;;;;;;18.22;50.60;100881.03;5002244;28;20092;-72
2024/04/05 03:00:22;;;;;;;6.82;2.03;;;;;;;18.41;50.53;100912.88;5003032;28;20046;-71
2024/04/05 03:02:48;;;;;;;6.65;1.90;;;;;;;18.40;50.42;100900.63;5002257;28;20029;-68
2024/04/05 03:05:13;;;;;;;8.00;2.10;;;;;;;18.42;50.65;100904.00;5002459;28;20038;-67
2024/04/05 03:07:39;;;;;;;7.57;1.88;;;;;;;18.38;50.52;100896.47;5000823;28;20045;-69
2024/04/05 03:10:06;;;;;;;6.63;1.90;;;;;;;18.41;50.64;100901.50;5000999;28;20029;-71
2024/04/05 03:12:31;;;;;;;6.63;1.92;;;;;;;18.40;50.67;100891.91;5001196;28;20113;-71
2024/04/05 03:14:57;;;;;;;5.65;1.55;;;;;;;18.26;50.45;100870.13;5001319;28;20164;-70
2024/04/05 03:17:22;;;;;;;6.32;1.65;;;;;;;18.33;50.55;100885.47;5000917;28;20026;-70
2024/04/05 03:19:47;;;;;;;6.32;1.73;;;;;;;18.41;50.93;100891.78;5002144;28;20040;-71
2024/04/05 03:22:12;;;;;;;6.68;1.80;;;;;;;18.19;50.50;100857.56;5002029;28;20038;-66
2024/04/05 03:24:38;;;;;;;7.03;1.65;;;;;;;18.38;50.77;100880.63;5002559;28;20117;-73
2024/04/05 03:27:05;;;;;;;5.22;1.60;;;;;;;18.29;50.68;100861.97;5001713;28;20041;-67
2024/04/05 03:29:30;;;;;;;6.68;2.10;;;;;;;18.27;50.74;100860.41;5001810;28;20030;-66
2024/04/05 03:31:56;;;;;;;7.35;2.55;;;;;;;18.38;50.59;100870.09;5001879;28;20040;-72
2024/04/05 03:34:21;;;;;;;6.20;1.80;;;;;;;18.22;50.64;100844.13;4984702;28;20045;-67
2024/04/05 03:36:46;;;;;;;7.18;1.90;;;;;;;18.24;50.74;100850.09;5001397;28;20500;-71
2024/04/05 03:39:14;;;;;;;6.00;1.80;;;;;;;18.18;50.88;100835.59;5000999;28;20471;-67
2024/04/05 03:41:39;;;;;;;7.78;2.10;;;;;;;18.36;50.74;100864.94;5001820;28;20141;-73
2024/04/05 03:44:05;;;;;;;5.93;1.65;;;;;;;18.31;50.67;100846.00;5000809;28;21302;-69
2024/04/05 03:46:32;;;;;;;6.95;2.05;;;;;;;18.38;50.75;100862.16;5000571;28;20033;-67
2024/04/05 03:48:58;;;;;;;6.28;1.67;;;;;;;18.26;50.64;100835.84;5001150;28;20096;-68
2024/04/05 03:51:23;;;;;;;6.55;2.15;;;;;;;18.32;50.69;100850.31;5002411;28;20415;-67
2024/04/05 03:53:48;;;;;;;5.55;1.70;;;;;;;18.30;50.93;100839.88;5001172;28;20045;-67
2024/04/05 03:56:13;;;;;;;6.10;1.60;;;;;;;18.34;50.92;100835.22;5001354;28;20058;-67
2024/04/05 03:58:39;;;;;;;5.00;1.58;;;;;;;18.29;50.80;100814.47;5001055;28;20498;-68
2024/04/05 04:01:04;;;;;;;6.22;1.95;;;;;;;18.18;50.90;100801.31;5000568;28;20476;-67
2024/04/05 04:03:29;;;;;;;5.25;1.90;;;;;;;18.20;51.02;100801.19;5002345;28;20041;-69
2024/04/05 04:05:55;;;;;;;5.35;1.55;;;;;;;18.22;50.90;100815.94;5000848;28;20049;-72
2024/04/05 04:08:20;;;;;;;5.13;1.83;;;;;;;18.30;50.96;100841.69;5001151;28;20485;-68
2024/04/05 04:10:47;;;;;;;7.07;1.70;;;;;;;18.30;51.00;100833.78;4987413;28;20487;-68
2024/04/05 04:13:13;;;;;;;5.38;1.90;;;;;;;18.24;50.89;100821.06;5003188;28;20085;-66
2024/04/05 04:15:39;;;;;;;5.65;1.70;;;;;;;18.28;51.08;100822.50;5004546;28;20434;-67
2024/04/05 04:18:04;;;;;;;5.32;1.45;;;;;;;18.34;51.13;100842.25;5005887;28;20040;-69
2024/04/05 04:20:30;;;;;;;6.45;1.90;;;;;;;18.26;50.99;100824.41;5004672;28;20038;-68
2024/04/05 04:22:55;;;;;;;7.07;2.15;;;;;;;18.22;50.80;100823.84;5006995;28;20072;-67
2024/04/05 04:25:21;;;;;;;6.22;1.80;;;;;;;18.19;50.96;100820.63;5006159;28;20021;-72
2024/04/05 04:27:46;;;;;;;5.88;2.00;;;;;;;18.21;50.88;100819.53;5004573;28;20038;-68
2024/04/05 04:30:11;;;;;;;6.75;1.50;;;;;;;18.33;51.26;100840.59;5005486;28;20463;-69
2024/04/05 04:32:37;;;;;;;5.20;1.60;;;;;;;18.25;51.06;100831.50;5005296;28;20044;-66
2024/04/05 04:35:03;;;;;;;4.68;1.45;;;;;;;18.27;51.19;100836.66;5006933;28;20449;-66
2024/04/05 04:37:29;;;;;;;5.18;1.42;;;;;;;18.32;51.36;100839.75;5004927;28;20026;-67
2024/04/05 04:39:54;;;;;;;5.97;1.58;;;;;;;18.26;51.27;100824.41;5004801;28;20034;-67
2024/04/05 04:42:19;;;;;;;6.88;1.67;;;;;;;17.93;51.27;100773.50;5004578;28;20044;-73
2024/04/05 04:44:45;;;;;;;7.07;2.00;;;;;;;18.28;51.04;100817.25;5005776;28;20064;-67
2024/04/05 04:47:10;;;;;;;4.75;1.80;;;;;;;18.31;51.23;100824.91;5005791;28;20559;-71
2024/04/05 04:49:35;;;;;;;5.55;1.88;;;;;;;18.31;51.36;100822.25;4988397;28;20089;-71
2024/04/05 04:52:01;;;;;;;5.18;1.67;;;;;;;18.26;51.02;100819.16;5005700;28;20037;-67
2024/04/05 04:54:28;;;;;;;5.35;1.70;;;;;;;18.30;51.14;100829.31;4990027;28;20703;-69
2024/04/05 04:56:53;;;;;;;4.80;1.40;;;;;;;18.19;51.27;100799.53;5006771;28;20077;-68
2024/04/05 04:59:19;;;;;;;4.90;1.48;;;;;;;18.18;51.16;100803.13;5006261;28;20451;-67
2024/04/05 05:01:44;;;;;;;6.10;1.77;;;;;;;18.15;51.05;100798.09;5005934;28;20033;-70
2024/04/05 05:04:12;;;;;;;5.75;1.58;;;;;;;18.26;51.15;100821.78;5006385;28;20125;-68
2024/04/05 05:06:37;;;;;;;6.25;1.65;;;;;;;18.19;51.13;100803.00;5008762;28;20059;-72
2024/04/05 05:09:03;;;;;;;5.35;1.65;;;;;;;18.24;51.13;100800.81;5006978;28;20044;-69
2024/04/05 05:11:28;;;;;;;5.32;1.63;;;;;;;18.16;51.41;100790.06;5006819;28;20042;-68
2024/04/05 05:13:53;;;;;;;4.97;1.30;;;;;;;18.27;51.33;100797.09;5007856;28;20029;-68
2024/04/05 05:16:19;;;;;;;6.68;2.47;;;;;;;18.18;51.13;100782.84;5007488;28;20042;-67
2024/04/05 05:18:44;;;;;;;6.10;1.80;;;;;;;18.14;51.14;100768.25;5006732;28;20052;-67
2024/04/05 05:21:10;;;;;;;5.93;1.80;;;;;;;18.16;51.68;100776.88;5007885;28;20092;-71
2024/04/05 05:23:35;;;;;;;6.68;1.98;;;;;;;18.28;51.23;100778.50;5006763;28;20029;-66
2024/04/05 05:26:03;;;;;;;4.35;1.52;;;;;;;18.24;51.27;100760.41;5004127;28;20813;-70
2024/04/05 05:28:28;;;;;;;5.35;1.75;;;;;;;18.15;51.07;100734.78;5006755;28;20048;-68
2024/04/05 05:30:54;;;;;;;5.20;1.85;;;;;;;18.16;51.32;100726.75;5006120;28;20033;-71
2024/04/05 05:33:19;;;;;;;5.13;1.73;;;;;;;18.18;51.23;100718.72;4989618;28;20029;-67
2024/04/05 05:35:44;;;;;;;3.63;1.13;;;;;;;18.16;51.33;100721.47;5007535;28;20026;-72
2024/04/05 05:38:10;;;;;;;5.28;1.77;;;;;;;18.33;51.34;100743.00;5008608;28;20037;-67
2024/04/05 05:40:35;;;;;;;4.20;1.20;;;;;;;18.21;51.33;100726.38;5006711;28;20388;-69
2024/04/05 05:43:00;;;;;;;4.32;1.27;;;;;;;18.27;51.30;100731.97;5006506;28;20172;-71
2024/04/05 05:45:28;;;;;;;4.82;1.60;;;;;;;18.35;51.26;100731.31;5006708;28;20403;-67
2024/04/05 05:47:54;;;;;;;5.63;1.50;;;;;;;18.32;51.21;100710.47;5006424;28;20800;-66
2024/04/05 05:50:21;;;;;;;3.95;1.30;;;;;;;18.39;51.35;100708.16;5004715;28;20103;-70
2024/04/05 05:52:46;;;;;;;4.93;1.27;;;;;;;18.40;51.67;100696.63;5001883;28;20646;-67
2024/04/05 05:55:12;;;;;;;5.40;1.60;;;;;;;18.28;51.41;100675.59;5003128;28;20038;-70
2024/04/05 05:57:37;;;;;;;4.57;1.10;;;;;;;18.40;51.41;100694.81;5001644;28;20103;-67
2024/04/05 06:00:05;;;;;;;2.97;1.02;;;;;;;18.31;51.58;100679.81;4983771;28;20030;-67
2024/04/05 06:02:30;;;;;;;4.35;1.20;;;;;;;18.44;51.39;100705.97;5002193;28;20062;-68
2024/04/05 06:04:55;;;;;;;4.60;1.60;;;;;;;18.27;51.12;100678.38;5002322;28;20144;-71
2024/04/05 06:07:21;;;;;;;3.90;1.35;;;;;;;18.34;51.30;100674.28;5003184;28;20069;-66
2024/04/05 06:09:50;;;;;;;4.85;1.50;;;;;;;18.50;51.43;100710.75;5001587;28;20026;-69
2024/04/05 06:12:16;;;;;;;4.50;1.45;;;;;;;18.43;51.18;100697.22;5002177;28;20427;-67
2024/04/05 06:14:44;;;;;;;4.13;1.10;;;;;;;18.48;51.33;100699.47;5002058;28;20037;-71
2024/04/05 06:17:10;;;;;;;2.67;1.20;;;;;;;18.40;50.89;100686.09;5002336;28;20057;-67
2024/04/05 06:19:38;;;;;;;4.93;1.50;;;;;;;18.49;51.37;100699.34;5002517;28;20139;-67
2024/04/05 06:22:03;;;;;;;4.70;1.23;;;;;;;18.51;51.57;100701.00;5002634;28;20033;-72
2024/04/05 06:24:29;;;;;;;3.70;1.25;;;;;;;18.49;51.46;100686.13;5003161;28;20097;-67
2024/04/05 06:26:54;;;;;;;4.00;1.35;;;;;;;18.44;51.82;100669.88;5001605;28;20834;-68
2024/04/05 06:29:19;;;;;;;4.47;1.58;;;;;;;18.51;51.75;100671.97;5000485;28;20038;-69
2024/04/05 06:31:45;;;;;;;5.88;1.10;;;;;;;18.42;51.79;100658.63;5000872;28;20100;-67
2024/04/05 06:34:10;;;;;;;5.85;1.50;;;;;;;18.55;51.80;100676.00;5000913;28;20034;-68
2024/04/05 06:36:36;;;;;;;4.75;1.50;;;;;;;18.54;51.91;100666.44;5000814;28;20034;-67
2024/04/05 06:39:04;;;;;;;6.00;1.45;;;;;;;18.53;51.95;100654.22;5000531;28;20492;-67
2024/04/05 06:41:29;;;;;;;4.32;1.20;;;;;;;18.59;51.56;100658.97;5000762;28;20065;-68
2024/04/05 06:43:55;;;;;;;5.20;1.27;;;;;;;18.56;52.10;100640.75;5000833;28;20515;-68
2024/04/05 06:46:20;;;;;;;4.25;1.42;;;;;;;18.57;51.96;100643.25;5001011;28;20036;-69
2024/04/05 06:48:46;;;;;;;3.83;1.23;;;;;;;18.60;52.38;100637.72;4999873;28;20120;-68
2024/04/05 06:51:11;;;;;;;4.13;1.20;;;;;;;18.62;52.07;100632.31;5001501;28;20026;-67
2024/04/05 06:53:38;;;;;;;3.60;1.40;;;;;;;18.56;52.16;100614.34;5000863;28;20065;-66
2024/04/05 06:56:06;;;;;;;3.28;1.30;;;;;;;18.63;52.51;100629.53;4999635;28;20041;-67
2024/04/05 06:58:31;;;;;;;3.53;1.40;;;;;;;18.60;52.28;100634.25;4994876;28;20033;-67
2024/04/05 07:01:01;;;;;;;5.43;1.80;;;;;;;18.51;52.31;100622.66;4995526;28;20426;-67
2024/04/05 07:03:26;;;;;;;4.63;1.40;;;;;;;18.63;52.53;100652.47;4980939;28;20037;-69
2024/04/05 07:05:59;;;;;;;4.30;1.30;;;;;;;18.54;52.51;100621.59;4978211;28;20076;-68
2024/04/05 07:08:25;;;;;;;7.90;1.20;;;;;;;18.63;52.39;100639.28;5000047;28;20034;-67
2024/04/05 07:10:51;;;;;;;4.18;1.10;;;;;;;18.57;52.87;100632.69;4999123;28;20385;-67
2024/04/05 07:13:16;;;;;;;4.53;1.20;;;;;;;18.52;53.01;100610.31;4999744;28;20104;-67
2024/04/05 07:15:41;;;;;;;3.05;1.30;;;;;;;18.53;53.09;100614.63;5000253;28;20037;-68
2024/04/05 07:18:09;;;;;;;5.05;1.50;;;;;;;18.51;53.12;100596.28;4999598;28;20026;-67
2024/04/05 07:20:36;;;;;;;3.95;1.38;;;;;;;18.54;53.21;100589.91;4999897;28;20033;-67
2024/04/05 07:23:02;;;;;;;5.70;1.35;;;;;;;18.55;53.45;100583.66;4999657;28;20112;-68
2024/04/05 07:25:27;;;;;;;3.90;1.25;;;;;;;18.70;53.23;100595.50;4999641;28;20113;-67
2024/04/05 07:27:54;;;;;;;5.10;1.20;;;;;;;18.72;53.70;100604.13;4981783;28;20810;-66
2024/04/05 07:30:22;;;;;;;4.45;1.15;;;;;;;18.66;53.39;100587.03;5000248;28;20076;-67
2024/04/05 07:32:50;;;;;;;5.88;1.30;;;;;;;18.72;53.50;100580.38;4999465;28;20033;-65
2024/04/05 07:35:17;;;;;;;3.90;1.10;;;;;;;18.74;53.55;100602.22;5000780;28;20471;-69
2024/04/05 07:37:46;;;;;;;4.22;1.25;;;;;;;18.62;53.42;100568.97;4999242;28;20785;-67
2024/04/05 07:40:11;;;;;;;5.50;1.30;;;;;;;18.58;53.46;100551.72;5000600;28;20147;-67
2024/04/05 07:42:37;;;;;;;3.45;1.13;;;;;;;18.71;53.63;100576.06;4982298;28;20117;-67
2024/04/05 07:45:03;;;;;;;2.95;0.98;;;;;;;18.70;53.34;100571.75;4999818;28;20045;-67
2024/04/05 07:47:29;;;;;;;5.15;1.20;;;;;;;18.76;53.64;100575.69;4983902;28;20038;-67
2024/04/05 07:49:57;;;;;;;3.67;1.10;;;;;;;18.73;53.64;100584.69;5003519;28;20061;-67
2024/04/05 07:52:23;;;;;;;4.57;1.13;;;;;;;18.59;53.61;100548.94;5003385;28;20037;-66
2024/04/05 07:54:49;;;;;;;4.40;1.20;;;;;;;18.70;53.76;100553.28;5004145;28;20029;-70
2024/04/05 07:57:14;;;;;;;3.15;0.98;;;;;;;18.68;53.67;100539.38;5003935;28;20025;-68
2024/04/05 07:59:41;;;;;;;4.30;1.20;;;;;;;18.72;53.79;100551.31;5003775;28;20044;-67
2024/04/05 08:02:06;;;;;;;3.75;1.10;;;;;;;18.72;53.85;100547.88;5003996;28;20562;-67
2024/04/05 08:04:33;;;;;;;3.42;1.17;;;;;;;18.73;54.12;100541.63;5004033;28;20038;-70
2024/04/05 08:06:58;;;;;;;4.30;1.00;;;;;;;18.69;53.94;100527.84;5001911;28;20492;-72
2024/04/05 08:09:25;;;;;;;7.68;1.58;;;;;;;18.54;53.72;100502.81;5003456;28;20036;-68
2024/04/05 08:11:50;;;;;;;3.85;1.10;;;;;;;18.74;54.07;100538.84;4984788;28;20538;-69
2024/04/05 08:14:15;;;;;;;3.45;1.10;;;;;;;18.64;53.78;100514.22;5003137;28;20030;-71
2024/04/05 08:16:47;;;;;;;2.95;1.15;;;;;;;18.75;53.83;100523.84;5002713;28;20076;-70
2024/04/05 08:19:12;;;;;;;4.60;1.00;;;;;;;18.68;53.88;100521.75;4984691;28;20430;-73
2024/04/05 08:21:38;;;;;;;5.80;1.25;;;;;;;18.66;53.99;100513.13;5002959;28;20030;-69
2024/04/05 08:24:03;;;;;;;5.25;1.27;;;;;;;18.79;54.14;100525.25;5002343;28;20034;-72
2024/04/05 08:26:29;;;;;;;4.90;1.30;;;;;;;18.64;53.95;100495.75;5003415;28;20452;-68
2024/04/05 08:28:54;;;;;;;4.80;1.17;;;;;;;18.66;53.96;100493.84;5002633;28;20514;-69
2024/04/05 08:31:19;;;;;;;4.38;1.30;;;;;;;18.73;54.16;100517.88;4985306;28;20816;-68
2024/04/05 08:33:45;;;;;;;4.60;1.10;;;;;;;18.78;54.30;100527.03;5001684;28;20113;-68
2024/04/05 08:36:10;;;;;;;4.38;1.27;;;;;;;18.63;54.15;100523.13;5003396;28;20032;-68
2024/04/05 08:38:35;;;;;;;6.38;1.23;;;;;;;18.67;54.02;100553.56;5001979;28;20038;-68
2024/04/05 08:41:06;;;;;;;4.63;1.13;;;;;;;18.61;54.34;100512.72;5001977;28;20038;-71
2024/04/05 08:43:35;;;;;;;7.68;1.17;;;;;;;18.63;54.09;100526.59;5003108;28;20053;-71
2024/04/05 08:46:00;;;;;;;7.05;1.23;;;;;;;18.78;54.12;100582.47;5002366;28;20041;-69
2024/04/05 08:48:29;;;;;;;5.72;1.35;;;;;;;18.60;54.03;100558.53;5001907;28;20049;-68
2024/04/05 08:50:57;;;;;;;3.65;1.10;;;;;;;18.77;54.39;100623.06;5001864;28;20033;-71
2024/04/05 08:53:22;;;;;;;3.75;1.10;;;;;;;18.78;54.42;100616.78;5002450;28;20046;-70
2024/04/05 08:55:48;;;;;;;5.40;1.38;;;;;;;18.80;54.15;100630.72;5001507;28;20038;-69
2024/04/05 08:58:13;;;;;;;4.20;1.20;;;;;;;18.60;54.47;100582.28;5001750;28;20034;-67
2024/04/05 09:00:39;;;;;;;3.97;1.77;;;;;;;18.76;54.17;100626.66;5001567;28;20037;-69
2024/04/05 09:03:05;;;;;;;4.95;1.13;;;;;;;18.63;54.06;100583.84;5000590;28;20041;-69
2024/04/05 09:05:31;;;;;;;6.07;1.70;;;;;;;18.66;54.05;100602.06;5001937;28;20492;-69
2024/04/05 09:08:03;;;;;;;6.00;2.05;;;;;;;18.73;54.00;100595.25;5000966;28;20041;-69
2024/04/05 09:10:29;;;;;;;6.68;1.45;;;;;;;18.76;53.63;100613.47;5000978;28;20486;-69
2024/04/05 09:12:55;;;;;;;5.82;1.75;;;;;;;18.63;54.01;100604.97;5001352;28;20038;-70
2024/04/05 09:15:23;;;;;;;4.40;1.50;;;;;;;18.71;53.81;100613.03;5002068;28;20033;-69
2024/04/05 09:17:49;;;;;;;7.03;1.75;;;;;;;18.75;54.27;100609.13;5001074;28;20036;-68
2024/04/05 09:20:25;;;;;;;7.57;1.58;;;;;;;18.61;54.25;100583.97;5001583;28;20038;-69
2024/04/05 09:23:00;;;;;;;5.60;1.23;;;;;;;18.75;54.39;100609.13;5002029;28;20216;-69
2024/04/05 09:25:25;;;;;;;5.88;1.35;;;;;;;18.74;54.26;100596.06;5001066;28;20033;-68
2024/04/05 09:27:51;;;;;;;4.05;1.10;;;;;;;18.62;54.99;100587.44;5001430;28;20030;-65
2024/04/05 09:30:17;;;;;;;4.18;1.30;;;;;;;18.62;54.50;100593.53;5001205;28;20034;-68
2024/04/05 09:32:47;;;;;;;5.18;1.40;;;;;;;18.64;54.68;100593.41;5001883;28;20038;-69
2024/04/05 09:35:18;;;;;;;5.50;1.55;;;;;;;18.58;54.68;100586.03;4999965;28;20439;-69
2024/04/05 09:37:47;;;;;;;7.20;1.40;;;;;;;18.77;54.61;100620.41;5001091;28;20030;-72
2024/04/05 09:40:16;;;;;;;3.00;1.00;;;;;;;18.75;54.53;100614.41;5001398;28;20673;-68
2024/04/05 09:42:43;;;;;;;3.50;0.98;;;;;;;18.78;54.68;100606.22;5001309;28;20046;-69
2024/04/05 09:45:09;;;;;;;4.53;1.20;;;;;;;18.78;54.44;100576.38;4998975;28;20077;-68
2024/04/05 09:47:34;;;;;;;3.95;1.48;;;;;;;18.75;54.59;100566.06;5001597;28;20042;-70
2024/04/05 09:50:00;;;;;;;5.00;1.30;;;;;;;18.67;54.66;100535.94;4990476;28;20069;-67
2024/04/05 09:52:33;;;;;;;3.65;1.25;;;;;;;18.56;54.55;100517.53;5001079;28;20040;-68
2024/04/05 09:55:00;;;;;;;6.40;1.10;;;;;;;18.74;54.59;100546.78;5000849;28;20037;-67
2024/04/05 09:57:27;;;;;;;6.10;1.40;;;;;;;18.75;54.87;100545.78;5001075;28;20034;-70
2024/04/05 09:59:54;;;;;;;4.38;1.38;;;;;;;18.70;54.68;100526.06;4999626;28;20045;-68
2024/04/05 10:02:21;;;;;;;2.88;1.00;;;;;;;18.69;54.44;100519.91;5000658;28;20043;-69
2024/04/05 10:04:46;;;;;;;3.40;1.20;;;;;;;18.59;54.35;100509.34;4999609;28;20183;-70
2024/04/05 10:07:12;;;;;;;4.22;1.25;;;;;;;18.61;54.45;100528.53;5000669;28;20511;-68
2024/04/05 10:09:38;;;;;;;4.10;0.90;;;;;;;18.80;54.39;100546.22;5000186;28;20057;-70
2024/04/05 10:12:16;;;;;;;3.95;1.25;;;;;;;18.71;54.44;100530.34;5000560;28;20030;-68
2024/04/05 10:14:52;;;;;;;4.70;1.23;;;;;;;18.80;54.31;100571.78;4999564;28;20497;-70
2024/04/05 10:17:17;;;;;;;3.72;1.10;;;;;;;18.87;54.27;100587.94;5000518;28;20403;-69
2024/04/05 10:19:42;;;;;;;4.18;1.30;;;;;;;18.84;54.18;100575.84;5000600;28;20026;-69
2024/04/05 10:22:09;;;;;;;4.18;1.10;;;;;;;18.73;54.27;100554.81;4999449;28;20033;-70
2024/04/05 10:24:38;;;;;;;4.63;1.27;;;;;;;18.89;54.47;100578.09;5001748;28;20045;-69
2024/04/05 10:27:04;;;;;;;4.10;1.20;;;;;;;18.72;54.57;100535.50;4999518;28;20037;-69
2024/04/05 10:29:33;;;;;;;5.68;1.25;;;;;;;18.79;54.16;100557.75;5000486;28;20029;-69
2024/04/05 10:32:01;;;;;;;3.15;0.98;;;;;;;18.78;54.40;100556.06;5000598;28;20069;-69
2024/04/05 10:34:26;;;;;;;5.47;1.00;;;;;;;18.89;54.23;100571.00;5000610;28;20101;-69
2024/04/05 10:36:53;;;;;;;7.70;1.10;;;;;;;18.90;54.59;100562.13;5000387;28;20065;-68
2024/04/05 10:39:18;;;;;;;3.25;0.88;;;;;;;18.64;54.53;100519.50;4999664;28;20072;-70
2024/04/05 10:41:46;;;;;;;3.55;0.98;;;;;;;18.88;54.26;100564.03;5000443;28;20069;-69
2024/04/05 10:44:11;;;;;;;3.47;1.25;;;;;;;18.89;54.42;100555.16;5000548;28;20041;-68
2024/04/05 10:46:37;;;;;;;4.20;1.15;;;;;;;18.87;54.29;100551.81;5001307;28;20395;-69
2024/04/05 10:49:02;;;;;;;3.78;0.95;;;;;;;18.84;54.19;100557.38;4999991;28;20216;-68
2024/04/05 10:51:28;;;;;;;3.45;1.10;;;;;;;18.90;54.14;100570.03;5000904;28;20037;-69
2024/04/05 10:53:54;;;;;;;4.50;0.90;;;;;;;18.78;54.43;100557.88;5000983;28;20033;-67
2024/04/05 10:56:20;;;;;;;5.28;1.10;;;;;;;18.89;54.53;100568.34;4995465;28;20566;-68
2024/04/05 10:58:46;;;;;;;3.42;1.08;;;;;;;18.78;54.60;100552.59;4997114;28;20109;-69
2024/04/05 11:01:13;;;;;;;4.10;1.50;;;;;;;18.85;54.79;100567.81;4998858;28;20034;-70
2024/04/05 11:03:39;;;;;;;4.00;1.42;;;;;;;18.89;54.71;100572.81;4999112;28;20081;-70
2024/04/05 11:06:04;;;;;;;4.07;1.00;;;;;;;18.88;54.72;100566.69;4998139;28;20263;-69
2024/04/05 11:08:31;;;;;;;4.47;1.42;;;;;;;18.90;54.76;100575.31;4999594;28;20600;-70
2024/04/05 11:10:57;;;;;;;4.55;1.33;;;;;;;18.63;55.01;100541.59;4998954;28;20122;-68
2024/04/05 11:13:25;;;;;;;4.47;1.10;;;;;;;18.84;54.91;100575.84;4981574;28;20034;-68
2024/04/05 11:16:02;;;;;;;4.03;1.20;;;;;;;18.88;54.86;100571.13;4998470;28;20052;-70
2024/04/05 11:18:35;;;;;;;4.05;1.20;;;;;;;18.89;54.96;100564.91;4999339;28;20037;-69